RJOF(METAR)
02/20 20:00
METAR RJOF 201100Z 29004KT 9999 FEW025 BKN040 07/02 Q1022 RMK 1CU025
5SC040 A3021=
戻る
トップページへ戻る
IMOC Co,.Ltd.